createdAt,value
2023-08-30T00:01:22.295Z,5.97
2023-08-30T00:03:49.578Z,5.50
2023-08-30T00:06:17.175Z,5.20
2023-08-30T00:08:44.177Z,5.20
2023-08-30T00:11:10.932Z,5.40
2023-08-30T00:13:38.024Z,5.27
2023-08-30T00:16:05.150Z,5.57
2023-08-30T00:18:32.317Z,6.97
2023-08-30T00:21:02.127Z,5.80
2023-08-30T00:23:29.005Z,6.07
2023-08-30T00:25:55.987Z,5.90
2023-08-30T00:28:22.904Z,5.73
2023-08-30T00:30:55.583Z,6.13
2023-08-30T00:33:22.791Z,6.73
2023-08-30T00:35:57.230Z,6.17
2023-08-30T00:38:24.360Z,6.13
2023-08-30T00:40:51.233Z,6.17
2023-08-30T00:43:18.203Z,5.77
2023-08-30T00:45:45.836Z,5.97
2023-08-30T00:48:13.717Z,6.10
2023-08-30T00:50:41.362Z,6.10
2023-08-30T00:53:09.002Z,6.50
2023-08-30T00:55:36.790Z,5.90
2023-08-30T00:58:04.026Z,6.33
2023-08-30T01:00:32.110Z,6.47
2023-08-30T01:02:59.314Z,6.23
2023-08-30T01:05:26.553Z,5.90
2023-08-30T01:07:53.903Z,5.70
2023-08-30T01:10:28.230Z,6.37
2023-08-30T01:13:03.436Z,6.80
2023-08-30T01:15:31.584Z,6.43
2023-08-30T01:18:00.201Z,6.20
2023-08-30T01:20:28.689Z,6.00
2023-08-30T01:23:18.265Z,5.77
2023-08-30T01:26:09.594Z,7.30
2023-08-30T01:28:38.834Z,7.40
2023-08-30T01:31:07.887Z,6.60
2023-08-30T01:33:35.664Z,6.27
2023-08-30T01:36:04.910Z,6.50
2023-08-30T01:38:33.255Z,6.87
2023-08-30T01:41:03.620Z,6.80
2023-08-30T01:43:31.705Z,7.77
2023-08-30T01:46:00.453Z,7.53
2023-08-30T01:48:29.002Z,8.43
2023-08-30T01:51:00.344Z,9.03
2023-08-30T01:53:29.022Z,10.87
2023-08-30T01:55:55.930Z,11.67
2023-08-30T01:58:22.798Z,12.47
2023-08-30T02:00:49.896Z,11.87
2023-08-30T02:03:16.991Z,12.97
2023-08-30T02:06:04.298Z,11.70
2023-08-30T02:08:42.281Z,11.27
2023-08-30T02:11:16.205Z,14.40
2023-08-30T02:13:46.117Z,13.40
2023-08-30T02:16:15.285Z,16.43
2023-08-30T02:18:42.783Z,13.77
2023-08-30T02:21:09.992Z,12.50
2023-08-30T02:23:36.785Z,12.37
2023-08-30T02:26:04.580Z,14.20
2023-08-30T02:28:31.477Z,12.27
2023-08-30T02:30:58.555Z,13.93
2023-08-30T02:33:25.506Z,13.23
2023-08-30T02:35:52.407Z,13.83
2023-08-30T02:38:19.433Z,13.80
2023-08-30T02:40:46.478Z,14.10
2023-08-30T02:43:13.977Z,15.73
2023-08-30T02:45:41.150Z,16.20
2023-08-30T02:48:08.251Z,18.07
2023-08-30T02:50:35.293Z,18.60
2023-08-30T02:53:02.261Z,18.47
2023-08-30T02:55:31.801Z,18.77
2023-08-30T02:57:59.710Z,19.30
2023-08-30T03:00:26.806Z,18.97
2023-08-30T03:02:53.805Z,22.83
2023-08-30T03:05:20.944Z,21.27
2023-08-30T03:07:48.048Z,21.87
2023-08-30T03:10:14.880Z,23.70
2023-08-30T03:12:41.757Z,24.77
2023-08-30T03:15:09.045Z,22.93
2023-08-30T03:17:37.358Z,26.60
2023-08-30T03:20:07.852Z,26.37
2023-08-30T03:22:34.760Z,27.63
2023-08-30T03:25:04.444Z,24.13
2023-08-30T03:27:32.017Z,22.80
2023-08-30T03:29:58.979Z,25.90
2023-08-30T03:32:25.844Z,24.40
2023-08-30T03:34:53.203Z,23.13
2023-08-30T03:37:20.162Z,27.90
2023-08-30T03:39:47.139Z,30.37
2023-08-30T03:42:14.032Z,30.83
2023-08-30T03:44:41.041Z,33.37
2023-08-30T03:47:08.775Z,27.83
2023-08-30T03:49:37.607Z,29.43
2023-08-30T03:52:04.875Z,29.70
2023-08-30T03:54:32.607Z,30.90
2023-08-30T03:56:59.400Z,29.40
2023-08-30T03:59:28.543Z,30.80
2023-08-30T04:01:55.599Z,29.40
2023-08-30T04:04:22.754Z,29.20
2023-08-30T04:06:49.602Z,29.33
2023-08-30T04:09:16.460Z,28.30
2023-08-30T04:11:43.734Z,26.90
2023-08-30T04:14:10.724Z,25.23
2023-08-30T04:16:37.665Z,27.10
2023-08-30T04:19:06.683Z,27.50
2023-08-30T04:21:33.645Z,26.83
2023-08-30T04:24:00.441Z,25.77
2023-08-30T04:26:27.411Z,24.63
2023-08-30T04:28:54.406Z,25.93
2023-08-30T04:31:21.295Z,24.07
2023-08-30T04:33:48.050Z,23.67
2023-08-30T04:36:14.838Z,20.87
2023-08-30T04:38:52.269Z,21.03
2023-08-30T04:41:23.602Z,20.53
2023-08-30T04:43:50.422Z,18.73
2023-08-30T04:46:17.276Z,18.47
2023-08-30T04:48:44.077Z,17.60
2023-08-30T04:51:10.891Z,17.10
2023-08-30T04:53:37.779Z,16.63
2023-08-30T04:56:15.423Z,16.43
2023-08-30T04:58:42.548Z,16.03
2023-08-30T05:01:09.926Z,17.00
2023-08-30T05:03:37.077Z,15.07
2023-08-30T05:06:04.206Z,15.83
2023-08-30T05:08:31.121Z,15.30
2023-08-30T05:10:58.424Z,14.90
2023-08-30T05:13:25.403Z,14.10
2023-08-30T05:15:52.494Z,12.97
2023-08-30T05:18:20.825Z,13.70
2023-08-30T05:20:47.817Z,12.67
2023-08-30T05:23:14.677Z,13.40
2023-08-30T05:25:41.900Z,13.53
2023-08-30T05:28:09.301Z,12.73
2023-08-30T05:30:36.524Z,12.47
2023-08-30T05:33:03.817Z,11.27
2023-08-30T05:35:31.720Z,12.23
2023-08-30T05:37:58.892Z,11.20
2023-08-30T05:40:25.946Z,12.73
2023-08-30T05:42:54.545Z,12.63
2023-08-30T05:45:21.672Z,11.30
2023-08-30T05:47:49.302Z,11.73
2023-08-30T05:50:16.448Z,12.07
2023-08-30T05:52:45.777Z,10.87
2023-08-30T05:55:12.784Z,10.33
2023-08-30T05:57:39.760Z,10.27
2023-08-30T06:00:07.455Z,9.93
2023-08-30T06:02:34.460Z,9.17
2023-08-30T06:05:01.386Z,10.20
2023-08-30T06:07:28.685Z,9.03
2023-08-30T06:09:58.802Z,9.60
2023-08-30T06:12:26.755Z,10.23
2023-08-30T06:14:54.012Z,9.47
2023-08-30T06:17:21.270Z,9.57
2023-08-30T06:19:48.479Z,9.57
2023-08-30T06:22:15.545Z,10.07
2023-08-30T06:24:42.503Z,9.27
2023-08-30T06:27:09.367Z,9.00
2023-08-30T06:29:36.263Z,9.20
2023-08-30T06:32:03.793Z,9.50
2023-08-30T06:34:30.781Z,9.60
2023-08-30T06:36:57.729Z,9.30
2023-08-30T06:39:24.626Z,9.43
2023-08-30T06:41:51.676Z,9.03
2023-08-30T06:44:18.727Z,8.90
2023-08-30T06:46:45.670Z,8.40
2023-08-30T06:49:12.764Z,8.10
2023-08-30T06:51:39.792Z,8.70
2023-08-30T06:54:06.629Z,9.00
2023-08-30T06:56:33.602Z,7.57
2023-08-30T06:59:00.413Z,8.80
2023-08-30T07:01:27.516Z,8.83
2023-08-30T07:03:54.298Z,7.80
2023-08-30T07:06:21.295Z,8.53
2023-08-30T07:08:48.186Z,7.43
2023-08-30T07:11:27.811Z,7.30
2023-08-30T07:14:01.295Z,7.07
2023-08-30T07:16:28.314Z,7.47
2023-08-30T07:18:55.067Z,6.33
2023-08-30T07:21:21.980Z,7.57
2023-08-30T07:23:48.860Z,6.77
2023-08-30T07:26:15.797Z,7.13
2023-08-30T07:28:43.686Z,7.20
2023-08-30T07:31:10.811Z,6.60
2023-08-30T07:33:37.727Z,7.53
2023-08-30T07:36:06.019Z,7.27
2023-08-30T07:38:33.648Z,7.90
2023-08-30T07:41:00.701Z,6.87
2023-08-30T07:43:27.494Z,7.90
2023-08-30T07:45:58.014Z,7.97
2023-08-30T07:48:25.022Z,7.43
2023-08-30T07:50:51.938Z,7.30
2023-08-30T07:53:18.858Z,7.13
2023-08-30T07:55:52.403Z,5.90
2023-08-30T07:58:19.474Z,6.57
2023-08-30T08:00:46.361Z,6.00
2023-08-30T08:03:13.373Z,6.60
2023-08-30T08:05:42.311Z,6.03
2023-08-30T08:08:09.397Z,6.20
2023-08-30T08:10:39.002Z,5.20
2023-08-30T08:13:05.962Z,6.20
2023-08-30T08:15:33.871Z,6.13
2023-08-30T08:18:01.969Z,5.50
2023-08-30T08:20:30.419Z,5.80
2023-08-30T08:22:57.574Z,6.07
2023-08-30T08:25:25.220Z,5.63
2023-08-30T08:27:55.260Z,6.50
2023-08-30T08:30:22.307Z,6.37
2023-08-30T08:32:51.591Z,7.37
2023-08-30T08:35:18.383Z,7.73
2023-08-30T08:37:45.266Z,7.77
2023-08-30T08:40:12.430Z,7.37
2023-08-30T08:42:39.428Z,7.37
2023-08-30T08:45:06.778Z,6.80
2023-08-30T08:47:33.824Z,7.63
2023-08-30T08:50:01.759Z,8.00
2023-08-30T08:52:33.068Z,7.70
2023-08-30T08:55:06.020Z,6.87
2023-08-30T08:57:33.014Z,7.57
2023-08-30T09:00:00.014Z,6.87
2023-08-30T09:02:27.145Z,6.20
2023-08-30T09:04:54.986Z,6.07
2023-08-30T09:07:22.387Z,6.43
2023-08-30T09:09:50.240Z,6.30
2023-08-30T09:12:17.274Z,6.40
2023-08-30T09:14:55.699Z,6.37
2023-08-30T09:17:22.784Z,5.47
2023-08-30T09:19:49.871Z,6.07
2023-08-30T09:22:16.852Z,6.50
2023-08-30T09:24:43.809Z,6.70
2023-08-30T09:27:10.643Z,5.63
2023-08-30T09:29:37.609Z,5.93
2023-08-30T09:32:04.913Z,5.60
2023-08-30T09:34:31.846Z,6.93
2023-08-30T09:37:03.570Z,5.37
2023-08-30T09:39:32.391Z,5.83
2023-08-30T09:41:59.841Z,5.87
2023-08-30T09:44:31.766Z,5.60
2023-08-30T09:46:59.177Z,5.70
2023-08-30T09:49:28.689Z,6.10
2023-08-30T09:51:56.300Z,5.43
2023-08-30T09:54:38.434Z,5.30
2023-08-30T09:57:08.527Z,4.43
2023-08-30T09:59:36.122Z,4.63
2023-08-30T10:02:03.589Z,5.33
2023-08-30T10:04:32.450Z,4.80
2023-08-30T10:06:59.920Z,5.30
2023-08-30T10:09:27.227Z,5.30
2023-08-30T10:11:54.640Z,5.60
2023-08-30T10:14:21.830Z,5.03
2023-08-30T10:16:50.624Z,5.43
2023-08-30T10:19:28.544Z,5.47
2023-08-30T10:22:16.216Z,5.03
2023-08-30T10:25:10.195Z,5.23
2023-08-30T10:27:42.785Z,4.60
2023-08-30T10:30:11.597Z,4.70
2023-08-30T10:32:42.421Z,4.60
2023-08-30T10:35:16.188Z,4.43
2023-08-30T10:37:43.989Z,4.90
2023-08-30T10:40:12.480Z,5.17
2023-08-30T10:42:39.442Z,5.10
2023-08-30T10:45:14.169Z,4.63
2023-08-30T10:47:42.030Z,5.77
2023-08-30T10:50:11.689Z,6.53
2023-08-30T10:52:39.129Z,4.60
2023-08-30T10:55:14.466Z,5.40
2023-08-30T10:57:45.967Z,5.60
2023-08-30T11:00:19.632Z,5.50
2023-08-30T11:02:49.224Z,5.70
2023-08-30T11:05:24.860Z,6.00
2023-08-30T11:07:52.771Z,5.63
2023-08-30T11:10:20.914Z,5.70
2023-08-30T11:12:51.334Z,5.43
2023-08-30T11:15:19.526Z,5.93
2023-08-30T11:17:46.857Z,5.33
2023-08-30T11:20:16.292Z,4.80
2023-08-30T11:22:45.083Z,5.67
2023-08-30T11:25:13.632Z,5.33
2023-08-30T11:27:41.034Z,5.97
2023-08-30T11:30:09.804Z,7.60
2023-08-30T11:32:38.894Z,6.43
2023-08-30T11:35:07.100Z,6.80
2023-08-30T11:37:34.697Z,6.63
2023-08-30T11:40:04.394Z,6.17
2023-08-30T11:42:31.804Z,7.10
2023-08-30T11:45:01.058Z,7.27
2023-08-30T11:47:28.716Z,11.17
2023-08-30T11:49:57.760Z,8.07
2023-08-30T11:52:26.539Z,7.27
2023-08-30T11:54:54.085Z,9.80
2023-08-30T11:57:22.616Z,8.77
2023-08-30T11:59:51.376Z,8.30
2023-08-30T12:02:19.695Z,7.43
2023-08-30T12:04:48.911Z,8.10
2023-08-30T12:07:27.844Z,8.00
2023-08-30T12:10:09.212Z,6.87
2023-08-30T12:12:39.361Z,7.33
2023-08-30T12:15:13.157Z,7.83
2023-08-30T12:17:40.090Z,7.73
2023-08-30T12:20:07.680Z,6.87
2023-08-30T12:22:39.553Z,8.17
2023-08-30T12:25:28.331Z,8.03
2023-08-30T12:27:55.263Z,6.87
2023-08-30T12:30:22.368Z,8.50
2023-08-30T12:32:50.046Z,7.97
2023-08-30T12:35:17.133Z,7.17
2023-08-30T12:37:44.331Z,7.80
2023-08-30T12:40:12.147Z,7.60
2023-08-30T12:42:38.954Z,8.03
2023-08-30T12:45:06.745Z,8.37
2023-08-30T12:47:33.754Z,7.30
2023-08-30T12:50:00.817Z,7.40
2023-08-30T12:52:27.907Z,6.17
2023-08-30T12:54:55.477Z,7.37
2023-08-30T12:57:22.708Z,7.73
2023-08-30T12:59:49.753Z,6.30
2023-08-30T13:02:16.890Z,6.63
2023-08-30T13:04:43.968Z,6.70
2023-08-30T13:07:10.761Z,5.70
2023-08-30T13:09:37.640Z,6.03
2023-08-30T13:12:05.398Z,6.70
2023-08-30T13:14:32.516Z,6.60
2023-08-30T13:17:00.687Z,6.57
2023-08-30T13:19:27.773Z,6.20
2023-08-30T13:21:54.682Z,6.00
2023-08-30T13:24:21.814Z,6.20
2023-08-30T13:26:50.221Z,6.40
2023-08-30T13:29:17.687Z,5.87
2023-08-30T13:31:44.679Z,6.30
2023-08-30T13:34:11.682Z,5.57
2023-08-30T13:36:40.506Z,6.00
2023-08-30T13:39:07.493Z,5.80
2023-08-30T13:41:34.559Z,5.13
2023-08-30T13:44:02.830Z,5.80
2023-08-30T13:46:29.990Z,5.10
2023-08-30T13:48:57.242Z,5.10
2023-08-30T13:51:25.499Z,5.27
2023-08-30T13:53:53.051Z,5.53
2023-08-30T13:56:20.913Z,4.50
2023-08-30T13:58:47.928Z,5.37
2023-08-30T14:01:15.077Z,4.77
2023-08-30T14:03:42.304Z,5.07
2023-08-30T14:06:09.372Z,4.90
2023-08-30T14:08:37.220Z,5.30
2023-08-30T14:11:05.138Z,5.33
2023-08-30T14:13:35.254Z,5.17
2023-08-30T14:16:04.312Z,5.40
2023-08-30T14:18:31.701Z,5.43
2023-08-30T14:20:59.690Z,5.97
2023-08-30T14:23:27.297Z,5.20
2023-08-30T14:25:58.122Z,4.63
2023-08-30T14:28:26.140Z,5.60
2023-08-30T14:30:53.769Z,5.33
2023-08-30T14:33:23.757Z,6.27
2023-08-30T14:35:50.874Z,5.63
2023-08-30T14:38:17.664Z,5.30
2023-08-30T14:40:44.522Z,5.23
2023-08-30T14:43:11.528Z,5.27
2023-08-30T14:45:41.395Z,5.40
2023-08-30T14:48:10.170Z,4.77
2023-08-30T14:50:37.506Z,4.40
2023-08-30T14:53:05.798Z,5.00
2023-08-30T14:55:32.933Z,4.83
2023-08-30T14:57:59.971Z,4.70
2023-08-30T15:00:27.315Z,4.80
2023-08-30T15:02:54.812Z,4.90
2023-08-30T15:05:21.781Z,4.67
2023-08-30T15:07:48.785Z,5.10
2023-08-30T15:10:17.213Z,5.37
2023-08-30T15:12:44.223Z,5.80
2023-08-30T15:15:11.259Z,5.90
2023-08-30T15:17:37.989Z,5.90
2023-08-30T15:20:05.320Z,6.67
2023-08-30T15:22:33.559Z,6.80
2023-08-30T15:25:02.908Z,6.90
2023-08-30T15:27:30.435Z,7.07
2023-08-30T15:29:57.538Z,7.03
2023-08-30T15:32:25.718Z,9.10
2023-08-30T15:34:53.087Z,8.03
2023-08-30T15:37:20.074Z,8.33
2023-08-30T15:39:47.332Z,8.93
2023-08-30T15:42:14.176Z,9.40
2023-08-30T15:44:41.103Z,8.47
2023-08-30T15:47:08.221Z,9.67
2023-08-30T15:49:36.637Z,9.20
2023-08-30T15:52:03.658Z,9.27
2023-08-30T15:54:30.467Z,10.03
2023-08-30T15:56:57.384Z,8.93
2023-08-30T15:59:24.253Z,8.70
2023-08-30T16:01:51.247Z,8.93
2023-08-30T16:04:18.506Z,8.90
2023-08-30T16:06:46.087Z,9.17
2023-08-30T16:09:13.639Z,8.87
2023-08-30T16:11:40.433Z,9.00
2023-08-30T16:14:07.611Z,9.40
2023-08-30T16:16:35.064Z,10.77
2023-08-30T16:19:02.743Z,10.70
2023-08-30T16:21:29.514Z,11.47
2023-08-30T16:23:56.477Z,11.97
2023-08-30T16:26:23.508Z,13.00
2023-08-30T16:28:50.391Z,12.67
2023-08-30T16:31:17.210Z,13.07
2023-08-30T16:33:44.172Z,12.07
2023-08-30T16:36:11.073Z,11.70
2023-08-30T16:38:38.028Z,13.93
2023-08-30T16:41:05.695Z,14.57
2023-08-30T16:43:33.001Z,12.60
2023-08-30T16:46:00.007Z,13.93
2023-08-30T16:48:27.789Z,13.63
2023-08-30T16:50:55.124Z,13.37
2023-08-30T16:53:22.188Z,13.27
2023-08-30T16:55:49.365Z,14.10
2023-08-30T16:58:16.505Z,12.50
2023-08-30T17:00:44.082Z,13.33
2023-08-30T17:03:11.344Z,14.50
2023-08-30T17:05:41.498Z,16.27
2023-08-30T17:08:08.544Z,15.67
2023-08-30T17:10:37.852Z,16.27
2023-08-30T17:13:05.732Z,16.90
2023-08-30T17:15:32.905Z,16.60
2023-08-30T17:17:59.767Z,17.50
2023-08-30T17:20:26.756Z,19.03
2023-08-30T17:22:53.731Z,20.10
2023-08-30T17:25:21.236Z,19.53
2023-08-30T17:27:48.156Z,20.00
2023-08-30T17:30:15.404Z,22.13
2023-08-30T17:32:43.421Z,22.57
2023-08-30T17:35:10.531Z,22.33
2023-08-30T17:37:37.283Z,22.93
2023-08-30T17:40:07.063Z,24.13
2023-08-30T17:42:34.097Z,24.97
2023-08-30T17:45:01.167Z,24.27
2023-08-30T17:47:29.936Z,24.10
2023-08-30T17:49:56.987Z,26.00
2023-08-30T17:52:24.490Z,23.30
2023-08-30T17:54:51.510Z,26.03
2023-08-30T17:57:18.544Z,26.93
2023-08-30T17:59:45.703Z,24.80
2023-08-30T18:02:13.016Z,25.17
2023-08-30T18:04:40.804Z,26.13
2023-08-30T18:07:07.907Z,26.23
2023-08-30T18:09:34.869Z,26.23
2023-08-30T18:12:05.149Z,22.50
2023-08-30T18:14:32.261Z,24.60
2023-08-30T18:16:59.616Z,23.70
2023-08-30T18:19:27.466Z,23.23
2023-08-30T18:21:54.583Z,23.10
2023-08-30T18:24:23.239Z,21.97
2023-08-30T18:26:51.850Z,21.83
2023-08-30T18:29:27.117Z,25.77
2023-08-30T18:31:54.429Z,24.33
2023-08-30T18:34:21.641Z,26.67
2023-08-30T18:36:48.467Z,25.40
2023-08-30T18:39:18.504Z,24.13
2023-08-30T18:41:45.606Z,25.13
2023-08-30T18:44:12.884Z,24.83
2023-08-30T18:46:40.064Z,26.60
2023-08-30T18:49:07.259Z,25.53
2023-08-30T18:51:34.787Z,24.47
2023-08-30T18:54:05.594Z,24.20
2023-08-30T18:56:33.180Z,23.30
2023-08-30T18:59:00.578Z,24.63
2023-08-30T19:01:32.219Z,27.20
2023-08-30T19:03:59.373Z,25.73
2023-08-30T19:06:27.611Z,26.50
2023-08-30T19:08:54.927Z,25.30
2023-08-30T19:11:22.175Z,23.43
2023-08-30T19:13:49.214Z,24.83
2023-08-30T19:16:18.655Z,24.77
2023-08-30T19:18:47.629Z,23.67
2023-08-30T19:21:15.954Z,24.57
2023-08-30T19:23:45.179Z,24.07
2023-08-30T19:26:14.759Z,24.63
2023-08-30T19:28:41.752Z,24.50
2023-08-30T19:31:09.356Z,23.17
2023-08-30T19:33:36.538Z,24.87
2023-08-30T19:36:03.711Z,24.77
2023-08-30T19:38:31.098Z,25.20
2023-08-30T19:40:58.467Z,24.67
2023-08-30T19:43:25.409Z,25.33
2023-08-30T19:46:06.099Z,24.23
2023-08-30T19:48:33.595Z,23.27
2023-08-30T19:51:01.951Z,23.97
2023-08-30T19:53:33.025Z,22.43
2023-08-30T19:56:02.225Z,24.40
2023-08-30T19:58:29.102Z,23.30
2023-08-30T20:01:07.421Z,22.37
2023-08-30T20:03:35.685Z,23.10
2023-08-30T20:06:04.618Z,23.33
2023-08-30T20:08:31.740Z,21.87
2023-08-30T20:11:04.645Z,22.73
2023-08-30T20:13:31.870Z,21.27
2023-08-30T20:16:03.838Z,21.90
2023-08-30T20:18:31.110Z,22.13
2023-08-30T20:20:59.833Z,20.67
2023-08-30T20:23:27.506Z,20.53
2023-08-30T20:25:54.585Z,19.83
2023-08-30T20:28:21.777Z,20.60
2023-08-30T20:30:50.467Z,20.47
2023-08-30T20:33:17.916Z,22.53
2023-08-30T20:35:45.859Z,21.80
2023-08-30T20:38:12.872Z,20.30
2023-08-30T20:40:43.502Z,20.47
2023-08-30T20:43:11.391Z,20.83
2023-08-30T20:45:38.879Z,20.90
2023-08-30T20:48:06.569Z,20.60
2023-08-30T20:50:36.714Z,21.00
2023-08-30T20:53:06.468Z,22.60
2023-08-30T20:55:41.561Z,21.10
2023-08-30T20:58:08.710Z,21.63
2023-08-30T21:00:35.697Z,21.30
2023-08-30T21:03:06.857Z,21.67
2023-08-30T21:05:34.310Z,22.70
2023-08-30T21:08:02.554Z,21.63
2023-08-30T21:10:29.919Z,22.00
2023-08-30T21:13:05.124Z,22.60
2023-08-30T21:15:38.085Z,22.67
2023-08-30T21:18:05.520Z,23.87
2023-08-30T21:20:32.760Z,24.97
2023-08-30T21:23:00.505Z,25.37
2023-08-30T21:25:36.977Z,24.13
2023-08-30T21:28:04.233Z,25.03
2023-08-30T21:30:32.113Z,26.20
2023-08-30T21:32:59.295Z,27.53
2023-08-30T21:35:26.248Z,26.57
2023-08-30T21:37:53.287Z,25.00
2023-08-30T21:40:20.589Z,27.90
2023-08-30T21:42:47.544Z,27.07
2023-08-30T21:45:14.960Z,28.13
2023-08-30T21:47:41.939Z,28.20
2023-08-30T21:50:09.251Z,28.07
2023-08-30T21:52:36.493Z,28.93
2023-08-30T21:55:08.800Z,27.60
2023-08-30T21:57:35.898Z,27.63
2023-08-30T22:00:02.898Z,27.73
2023-08-30T22:02:32.517Z,26.03
2023-08-30T22:04:59.678Z,27.30
2023-08-30T22:07:26.506Z,26.10
2023-08-30T22:09:53.415Z,25.90
2023-08-30T22:12:21.112Z,24.67
2023-08-30T22:14:50.147Z,24.97
2023-08-30T22:17:17.391Z,26.10
2023-08-30T22:19:44.376Z,23.70
2023-08-30T22:22:11.460Z,23.17
2023-08-30T22:24:38.343Z,20.80
2023-08-30T22:27:05.513Z,17.37
2023-08-30T22:29:32.628Z,15.33
2023-08-30T22:31:59.763Z,14.20
2023-08-30T22:34:27.523Z,14.23
2023-08-30T22:36:55.701Z,15.53
2023-08-30T22:39:23.115Z,14.97
2023-08-30T22:41:50.124Z,16.30
2023-08-30T22:44:17.015Z,17.93
2023-08-30T22:46:44.044Z,18.03
2023-08-30T22:49:11.009Z,21.23
2023-08-30T22:51:52.014Z,20.20
2023-08-30T22:54:22.495Z,21.23
2023-08-30T22:56:50.306Z,23.27
2023-08-30T22:59:17.676Z,21.57
2023-08-30T23:01:46.339Z,21.40
2023-08-30T23:04:13.372Z,19.83
2023-08-30T23:06:40.353Z,20.67
2023-08-30T23:09:08.056Z,19.90
2023-08-30T23:11:35.048Z,17.93
2023-08-30T23:14:02.589Z,18.27
2023-08-30T23:16:29.555Z,18.10
2023-08-30T23:18:56.483Z,17.67
2023-08-30T23:21:23.309Z,17.70
2023-08-30T23:23:50.159Z,16.87
2023-08-30T23:26:17.471Z,15.70
2023-08-30T23:28:45.219Z,15.97
2023-08-30T23:31:13.251Z,14.87
2023-08-30T23:33:41.759Z,15.33
2023-08-30T23:36:08.881Z,15.10
2023-08-30T23:38:39.772Z,15.37
2023-08-30T23:41:07.787Z,14.80
2023-08-30T23:43:34.867Z,12.90
2023-08-30T23:46:01.963Z,13.13
2023-08-30T23:48:29.186Z,12.70
2023-08-30T23:50:56.093Z,13.00
2023-08-30T23:53:24.589Z,13.17
2023-08-30T23:55:55.013Z,13.00
2023-08-30T23:58:25.226Z,13.33
